Aérodrome :
LOGIN :

S'inscrire | Disclaimer

   EN    FR    IT 

 










Légende :    VFR   VFR Marginal   IFR   IFR Intensif   IFR Très Intensif
Visi : 
Plafond : 
>= 8 km
>= 3000ft
5 à 8 km
1000 à 3000 ft
1500m à 5 km
500 à 1000 ft
800 à 1500m
200 à 500 ft
< 800m
< 200 ft
Symboles :   Orages  Brouillard  Fortes neiges  Fortes précipitations  Vent > 20 kt
SIGMETs :   Divers  Orages  Givrage  Turbulence  Onde Orograph.  Cendres Volcan.







- Altitude de l'aérodrome : 1470 ft
- Code IATA : KLU


LOWK - Klagenfurt

DERNIER METAR :
  • 211650Z VRB02KT 9999 FEW050 24/15 Q1014 NOSIG

METARs EXPIRÉS :
  • 211620Z VRB02KT 9999 FEW050 24/16 Q1014 NOSIG
  • 211550Z 07003KT 040V110 9999 FEW050 26/15 Q1014 NOSIG
  • 211520Z VRB03KT 9999 FEW050 26/15 Q1014 NOSIG
  • 211450Z 07004KT 020V140 9999 FEW050 26/15 Q1014 NOSIG
  • 211420Z 06003KT 010V120 9999 FEW050 26/15 Q1014 NOSIG

TAF TAF LOWK
Valide du 21 à 12h jusqu'au 22 à 12h UTC


211115Z 2112/2212 VRB02KT 9999 FEW050 TX27/2115Z TN13/2206Z
BECMG 2121/2124 31005KT FEW050 SCT070 BKN160
TEMPO 2200/2212 31010KT 5000 RA SCT010 BKN035
Pas de NOTAMs connus pour ce terrain.



MET'MAP, la Météo Aéronautique d'un coup d'oeil ! - Copyright ORBIFLY Décembre 2007 - Disclaimer

ORBIFLY MET'MAP TEAM :

Programmation & Développement : Alexandra Zaïnal
Conception & Développement : Baudouin d'Aumeries
Co-Programmation & Développement : Marc-Olivier Méhu
Soutien technique & logistique : Manuel Goepfert

Contact : metmap@orbifly.com




SOURCES & CREDITS :

   NOAA